San Diego, CA

12:14 AM PDT on September 29, 2016 (GMT -0700)
San Diego International-Lindbergh | | Change Station

Elev 30 ft 32.73 °N, 117.18 °W | Updated 23 minutes ago

Partly Cloudy
Partly Cloudy
76 °F
Feels Like 76 °F
N
4
Wind Variable Wind from North

Today
High -- | Low -- °F
--% Chance of Precip.
Yesterday
High -- | Low -- °F
Precip. -- in
Pressure 29.96 in
Visibility 10.0 miles
Clouds Few 15000 ft
Few 25000 ft
Dew Point 55 °F
Humidity 48%
Rainfall 0.00 in
Snow Depth Not available.
6:41 AM 6:35 PM
Waning Crescent, 3% visible
METAR KSAN 290651Z 35003KT 10SM FEW150 FEW250 24/13 A2996 RMK AO2 SLP146 T02440128
Pressure 29.96 in
Visibility 10.0 miles
Clouds Few 15000 ft
Few 25000 ft
Dew Point 55 °F
Humidity 48%
Rainfall 0.00 in
Snow Depth Not available.
6:41 AM 6:35 PM
Waning Crescent, 3% visible
METAR KSAN 290651Z 35003KT 10SM FEW150 FEW250 24/13 A2996 RMK AO2 SLP146 T02440128

10-Day Weather Forecast

Almanac

Astronomy

Sep. 29, 2016 Rise Set
Actual Time
Civil Twilight
Nautical Twilight
Astronomical Twilight
Moon
Length of Visible Light
Length of Day
Tomorrow will be .
, % of the Moon is Illuminated

Today's Extremes

State Highs State Lows

Community

WunderPhotos

Upload Photos

1,942,446 photos uploaded!

WunderBlog® & News

Nearby

Air Quality

  Air Quality AQ Index Pollutant
Not available.

Snow Depth

Station Depth Elevation

Earthquake Activity

City Distance Mag. Time & Date
Minimum magnitude displayed is 2.5.

Coastal Water Temperatures

Place Temperature

Stations

Nearby Weather Stations

Station Location Temp. Windchill Dew Point Humidity Wind Precip. Elev Updated Type
                   

Watches & Warnings

There are currently no watches in effect.